Adrian, MN (56110)

2:47 PM CST en Febrero 28, 2015 (GMT -0600)
Luverne | Change Station
CLOSE
Current Station
Aeropuerto
Location: Luverne,
Altura: 1430 ft
Estaciones meteorológicas cercanas

Alt 1430 ft 43.62 °N, 96.21 °W | Updated 32 minutes ago

Parcialmente nublado
Parcialmente nublado
23 ° F
Sensación térmica 8 ° F
N
20
Viento Variable Viento desde Sur

Hoy
Alta -- | Baja -- ° F
--% Posibilidad de precipitaciones
Ayer
Alta -- | Baja -- ° F
Precip. -- pul
7:02 AM 6:10 PM
Gibosa creciente, 80% visible
Presión 30.28 pul
Visibilidad 10.0 Millas
Nubes Muy nublado 2500 ft
Vientos helados 8 ° F
Punto de rocío 14 ° F
Humedad 68%
Precipitaciones 0.00 pul
Espesor de la nieve No disponible.
UV 2 de una escala de 12
Polen .40 de una escala de 12
Calidad del aire No disponible.
Flu Activity No disponible.
METAR KLYV 282015Z AUTO 19017KT 10SM BKN025 M05/M10 A3028 RMK AO2

More Conditions Fewer Conditions

Presión 30.28 pul
Visibilidad 10.0 Millas
Nubes Muy nublado 2500 ft
Vientos helados 8 ° F
Punto de rocío 14 ° F
Humedad 68%
Precipitaciones 0.00 pul
Espesor de la nieve No disponible.
UV 2 de una escala de 12
Polen .40 de una escala de 12
Calidad del aire No disponible.
Flu Activity No disponible.
METAR KLYV 282015Z AUTO 19017KT 10SM BKN025 M05/M10 A3028 RMK AO2

More Conditions Fewer Conditions

10-Day Weather Forecast

Almanac

Astronomía

Feb. 28, 2015 Salida Puesta
Hora real
Crepúsculo civil
Crepúsculo náutico
Crepúsculo astronómico
Luna
Horas de luz
Horas de luz
Tomorrow will be .
, % of the Moon is Illuminated

Extremos de hoy

Máximos del estado Bajos del estado

Community

WunderPhotos

Upload Photos

1,801,145 ¡fotos cargadas!

WunderBlogs® & News

Nearby

Calidad del aire

  Calidad del aire Índice AQ Contaminante
Not available.

Grosos de nieve

Estación Profundido Altura

Actividad de terremotos

Ciudad Distance Mag. Tiempo y dato
Magnitud mínima muestra es 2,5.

Temperaturas de aguas costeras

Lugar Temperatura

Estaciones meteorológicas cercanas